Latest Weather Observations for Cocos Island

IDW60801

Issued at 8:33 pm WST Wednesday 16 August 2017 (issued every 30 minutes, with the page automatically refreshed every 10 minutes)

About weather observations | Map of weather stations | Latest weather observations for WA | Other Formats
Station Details ID: 200284 Name: COCOS ISLAND AIRPORT Lat: -12.19 Lon: 96.83 Height: 3.0 m
Data from the previous 72 hours. | See also: Recent months at Cocos Island
Date/Time
WST
Temp
°C
App
Temp
°C
Dew
Point
°C
Rel
Hum
%
Delta-T
°C
Wind Press
QNH
hPa
Press
MSL
hPa
Rain since
9am
mm
Dir  Spd
km/h
Gust
km/h
Spd
kts
Gust
kts
16/08:30pm 25.1 25.6 22.7 86 1.6 E 24 39 13 21 1013.4 - 0.4
16/08:00pm 25.4 25.2 22.0 81 2.3 E 26 37 14 20 1013.1 1013.0 0.4
16/07:30pm 25.6 25.1 22.2 81 2.3 E 28 39 15 21 1012.7 - 0.4
16/07:00pm 25.5 25.0 21.4 78 2.7 E 26 35 14 19 1012.5 - 0.4
16/06:30pm 25.0 26.0 22.2 84 1.9 ESE 20 30 11 16 1012.3 - 0.4
16/06:08pm 24.0 23.2 22.4 91 1.1 ESE 30 37 16 20 1012.5 - 0.4
16/06:07pm 24.0 23.2 22.4 91 1.1 ESE 30 39 16 21 1012.5 - 0.4
16/06:03pm 24.3 23.2 22.5 90 1.2 ESE 32 39 17 21 1012.4 - 0.4
16/06:00pm 24.2 23.2 22.7 91 1.0 ESE 32 41 17 22 1012.3 - 0.4
16/05:55pm 24.5 24.0 22.9 91 1.1 ESE 30 41 16 22 1012.3 - 0.4
16/05:46pm 24.7 23.8 22.9 90 1.2 ESE 32 43 17 23 1012.2 - 0.4
16/05:30pm 26.7 27.0 22.2 76 3.0 ESE 24 37 13 20 1011.9 - 0.4
16/05:00pm 26.9 27.7 23.1 80 2.6 ESE 24 35 13 19 1011.7 1011.6 0.4
16/04:30pm 26.9 27.2 22.3 76 3.1 ESE 24 33 13 18 1011.6 - 0.4
16/04:00pm 26.7 27.2 22.6 78 2.8 ESE 24 33 13 18 1011.6 - 0.4
16/03:30pm 26.2 27.6 22.8 81 2.3 ESE 20 32 11 17 1011.8 - 0.4
16/03:17pm 25.9 28.3 23.6 87 1.6 E 17 28 9 15 1011.9 - 0.4
16/03:00pm 25.6 25.6 23.1 86 1.7 ESE 28 39 15 21 1012.1 - 0.2
16/02:30pm 27.2 27.4 22.0 73 3.5 ESE 24 37 13 20 1012.2 - 0.0
16/02:00pm 26.7 26.8 22.6 78 2.8 ESE 26 37 14 20 1012.5 1012.4 0.0
16/01:30pm 27.9 28.0 21.9 70 4.0 E 24 33 13 18 1012.8 - 0.0
16/01:00pm 27.4 27.7 22.2 73 3.5 ESE 24 35 13 19 1013.2 - 0.0
16/12:30pm 27.3 28.1 22.4 74 3.3 ESE 22 30 12 16 1013.7 - 0.0
16/12:00pm 27.2 27.9 22.3 74 3.3 ESE 22 32 12 17 1014.1 - 0.0
16/11:30am 27.1 27.8 22.2 74 3.3 ESE 22 32 12 17 1014.4 - 0.0
16/11:00am 27.3 27.9 22.1 73 3.5 E 22 32 12 17 1014.6 1014.5 0.6
16/10:30am 27.2 27.2 21.7 72 3.7 E 24 35 13 19 1014.5 - 0.6
16/10:00am 26.5 27.5 22.2 77 2.9 E 20 32 11 17 1014.4 - 0.6
16/09:30am 25.9 26.6 22.2 80 2.5 E 22 30 12 16 1014.2 - 0.6
16/09:00am 25.4 25.7 22.3 83 2.1 E 24 39 13 21 1013.9 - 0.6
 
Date/Time
WST
Temp
°C
App
Temp
°C
Dew
Point
°C
Rel
Hum
%
Delta-T
°C
Wind Press
QNH
hPa
Press
MSL
hPa
Rain since
9am
mm
Dir  Spd
km/h
Gust
km/h
Spd
kts
Gust
kts
15/05:00pm 25.1 26.5 23.5 91 1.1 E 22 32 12 17 1012.6 1012.5 0.4
15/04:30pm 25.1 24.6 23.6 91 1.0 E 32 41 17 22 1012.7 - 0.2
15/04:07pm 25.1 23.5 23.3 90 1.2 E 37 48 20 26 1012.8 - 0.0
15/04:00pm 25.2 23.6 23.3 89 1.3 E 37 48 20 26 1012.7 - 0.0
15/03:30pm 26.5 25.7 23.1 81 2.3 E 32 44 17 24 1012.9 - 0.0
15/03:00pm 27.9 27.7 22.7 73 3.5 ESE 28 39 15 21 1013.1 - 0.0
15/02:30pm 27.8 28.3 22.6 73 3.5 ESE 24 37 13 20 1013.3 - 0.0
15/02:00pm 27.6 26.8 22.4 73 3.5 ESE 30 46 16 25 1013.6 1013.5 0.0
15/01:53pm 27.6 27.2 22.4 73 3.5 ESE 28 46 15 25 1013.6 - 0.0
15/01:30pm 27.8 27.5 22.6 73 3.5 ESE 28 43 15 23 1013.8 - 0.0
15/01:00pm 27.9 27.5 22.4 72 3.7 ESE 28 39 15 21 1014.2 - 0.0
15/12:30pm 27.6 26.9 21.8 70 3.9 ESE 28 39 15 21 1014.7 - 0.0
15/12:00pm 27.7 27.1 21.9 70 3.9 ESE 28 39 15 21 1014.9 - 0.0
15/11:30am 27.7 27.7 22.4 73 3.6 ESE 26 37 14 20 1015.2 - 0.0
15/11:00am 27.5 27.0 22.1 72 3.6 ESE 28 41 15 22 1015.2 1015.1 0.0
15/10:30am 27.4 26.8 22.0 72 3.6 E 28 41 15 22 1015.2 - 0.0
15/10:00am 26.8 27.0 22.0 75 3.2 ESE 24 37 13 20 1015.0 - 0.0
15/09:30am 26.6 26.4 22.0 76 3.1 ESE 26 37 14 20 1014.7 - 0.0
15/09:00am 26.2 25.6 21.9 77 2.9 ESE 28 37 15 20 1014.4 - 0.0
15/08:30am 26.2 25.8 22.3 79 2.6 ESE 28 41 15 22 1014.1 - 0.0
15/08:00am 26.0 25.8 22.0 78 2.7 ESE 26 39 14 21 1014.0 1013.9 0.0
15/07:30am 25.8 24.9 22.1 80 2.5 ESE 30 41 16 22 1013.7 - 0.0
15/07:00am 25.8 25.6 22.7 83 2.1 ESE 28 35 15 19 1013.4 - 0.0
15/06:30am 25.8 26.8 22.2 80 2.4 ESE 20 33 11 18 1013.3 - 0.0
15/06:00am 25.9 26.6 22.3 80 2.4 E 22 32 12 17 1013.4 - 0.0
15/05:30am 25.9 26.2 22.2 80 2.5 E 24 33 13 18 1013.5 - 0.0
15/05:00am 25.7 26.1 22.4 82 2.2 E 24 33 13 18 1013.4 1013.3 0.0
15/04:30am 25.9 26.7 22.5 81 2.3 ESE 22 32 12 17 1013.6 - 0.0
15/04:00am 26.0 26.0 21.6 76 2.9 ESE 24 32 13 17 1013.6 - 0.0
15/03:30am 26.0 25.7 21.8 77 2.8 ESE 26 32 14 17 1013.9 - 0.0
15/03:00am 26.0 25.8 21.3 75 3.1 ESE 24 39 13 21 1014.2 - 0.0
15/02:30am 26.0 26.1 21.8 77 2.8 ESE 24 33 13 18 1014.5 - 0.0
15/02:00am 26.2 27.4 22.5 80 2.5 ESE 20 28 11 15 1015.0 1014.9 0.0
15/01:30am 26.2 27.5 22.6 80 2.4 ESE 20 30 11 16 1015.4 - 0.0
15/01:00am 26.3 27.6 22.7 80 2.4 ESE 20 28 11 15 1015.6 - 0.0
15/12:30am 26.4 27.3 22.7 80 2.5 ESE 22 30 12 16 1015.7 - 0.0
15/12:00am 26.5 28.0 23.0 81 2.4 E 20 28 11 15 1015.8 - 0.0
 
Date/Time
WST
Temp
°C
App
Temp
°C
Dew
Point
°C
Rel
Hum
%
Delta-T
°C
Wind Press
QNH
hPa
Press
MSL
hPa
Rain since
9am
mm
Dir  Spd
km/h
Gust
km/h
Spd
kts
Gust
kts
14/11:30pm 26.6 28.3 23.1 81 2.4 ESE 19 26 10 14 1015.9 - 0.0
14/11:00pm 26.5 27.9 22.8 80 2.5 ESE 20 26 11 14 1015.9 1015.8 0.0
14/10:30pm 26.5 28.0 23.0 81 2.4 ESE 20 30 11 16 1015.8 - 0.0
14/10:00pm 26.7 29.2 23.2 81 2.4 ESE 15 22 8 12 1015.6 - 0.0
14/09:30pm 26.5 29.2 22.8 80 2.5 ESE 13 20 7 11 1015.5 - 0.0
14/09:00pm 26.6 29.1 23.1 81 2.4 ESE 15 20 8 11 1015.2 - 0.0
14/08:30pm 26.2 28.8 23.3 84 2.0 SE 15 20 8 11 1014.9 - 0.0
14/08:14pm 26.0 28.3 23.4 85 1.8 ESE 17 19 9 10 1014.6 - 0.0
14/08:00pm 25.9 28.2 23.4 86 1.7 ESE 17 22 9 12 1014.5 1014.4 0.0
14/07:52pm 26.4 29.3 23.2 82 2.2 ESE 13 20 7 11 1014.4 - 0.0
14/07:30pm 26.7 29.1 23.0 80 2.5 ESE 15 19 8 10 1014.1 - 0.0
14/07:00pm 26.9 29.2 22.8 78 2.8 ESE 15 20 8 11 1013.8 - 0.0
14/06:30pm 26.8 29.1 22.7 78 2.8 SE 15 20 8 11 1013.5 - 0.0
14/06:00pm 27.1 29.0 22.8 77 2.9 SE 17 22 9 12 1013.3 - 0.0
14/05:30pm 27.2 29.1 22.8 77 3.0 SE 17 22 9 12 1013.0 - 0.0
14/05:00pm 27.5 29.4 22.8 75 3.2 ESE 17 22 9 12 1012.7 1012.6 0.0
14/04:30pm 28.0 29.8 22.5 72 3.7 ESE 17 26 9 14 1012.7 - 0.0
14/04:00pm 28.1 29.4 22.3 70 3.9 ESE 19 24 10 13 1012.8 - 0.0
14/03:30pm 27.9 29.6 23.1 75 3.3 SE 19 24 10 13 1013.1 - 0.0
14/03:00pm 27.8 29.5 23.0 75 3.3 SE 19 24 10 13 1013.4 - 0.0
14/02:30pm 27.9 29.3 22.6 73 3.6 SE 19 24 10 13 1013.7 - 0.0
14/02:00pm 29.1 31.2 23.1 70 4.1 E 17 20 9 11 1014.1 1014.0 0.0
14/01:30pm 28.8 31.5 22.9 70 4.0 E 13 17 7 9 1014.5 - 0.0
14/01:00pm 28.7 31.4 22.8 70 4.0 ESE 13 17 7 9 1014.8 - 0.0
14/12:30pm 28.8 30.9 22.5 68 4.3 E 15 19 8 10 1015.3 - 0.0
14/11:30am 28.3 30.0 22.4 70 4.0 E 17 22 9 12 1015.6 - 0.0
14/11:00am 28.4 30.2 22.5 70 4.0 E 17 24 9 13 1015.8 1015.7 0.0
14/10:30am 27.8 29.6 22.6 73 3.5 E 17 22 9 12 1015.7 - 0.0
14/10:00am 27.5 29.9 22.9 76 3.1 E 15 19 8 10 1015.6 - 0.0
14/09:30am 26.6 29.3 22.8 79 2.6 E 13 17 7 9 1015.4 - 0.0
14/09:00am 26.0 29.5 22.9 83 2.1 ESE 9 13 5 7 1015.0 - 0.0
14/08:30am 25.6 28.9 22.6 83 2.0 ESE 9 13 5 7 1014.7 - 0.0
14/08:00am 25.5 28.4 22.5 83 2.0 ESE 11 13 6 7 1014.4 1014.3 0.0
14/07:30am 25.3 28.3 22.6 85 1.8 ESE 11 15 6 8 1014.1 - 0.0
14/07:00am 25.3 28.6 22.6 85 1.8 ESE 9 15 5 8 1013.9 - 0.0
14/06:30am 25.4 28.4 22.6 84 1.9 E 11 15 6 8 1013.7 - 0.0
14/06:00am 25.3 28.5 22.3 83 2.0 ESE 9 13 5 7 1013.8 - 0.0
14/05:30am 25.4 28.3 22.4 83 2.0 E 11 15 6 8 1013.8 - 0.0
14/05:00am 25.4 28.6 22.4 83 2.0 ESE 9 13 5 7 1013.7 1013.6 0.0
14/04:30am 25.4 28.5 22.1 82 2.2 ESE 9 13 5 7 1013.8 - 0.0
14/04:00am 25.6 28.0 22.3 82 2.2 E 13 17 7 9 1013.9 - 0.0
14/03:30am 25.6 28.0 22.2 81 2.3 E 13 17 7 9 1014.1 - 0.0
14/03:00am 25.7 28.5 22.3 81 2.3 ESE 11 15 6 8 1014.4 - 0.0
14/02:30am 25.7 28.1 22.3 81 2.3 E 13 19 7 10 1014.5 - 0.0
14/02:00am 25.7 28.9 22.4 82 2.2 ESE 9 13 5 7 1014.6 1014.5 0.0
14/01:30am 25.8 28.9 22.2 80 2.4 ESE 9 13 5 7 1014.8 - 0.0
14/01:00am 25.9 29.1 22.3 80 2.4 ESE 9 15 5 8 1015.0 - 0.0
14/12:30am 25.9 28.7 22.3 80 2.4 ESE 11 19 6 10 1015.0 - 0.0
14/12:00am 26.1 28.7 22.7 81 2.3 E 13 17 7 9 1015.0 - 0.0
 
Date/Time
WST
Temp
°C
App
Temp
°C
Dew
Point
°C
Rel
Hum
%
Delta-T
°C
Wind Press
QNH
hPa
Press
MSL
hPa
Rain since
9am
mm
Dir  Spd
km/h
Gust
km/h
Spd
kts
Gust
kts
13/11:30pm 26.1 28.6 22.4 80 2.5 E 13 19 7 10 1015.1 - 0.0
13/11:00pm 26.0 28.5 22.4 80 2.4 ESE 13 19 7 10 1015.0 1014.9 0.0
13/10:47pm 26.2 28.8 22.6 80 2.4 ESE 13 20 7 11 1014.9 - 0.0
13/10:30pm 26.2 28.4 22.6 80 2.4 E 15 17 8 9 1014.8 - 0.0
13/10:28pm 26.2 28.4 22.6 80 2.4 E 15 19 8 10 1014.8 - 0.0

Other Formats:

Comma delimited format used in spreadsheet applications
http://www.bom.gov.au/fwo/IDW60801/IDW60801.96996.axf

JavaScript Object Notation format (JSON) in row-major order
http://www.bom.gov.au/fwo/IDW60801/IDW60801.96996.json